sensor_id;sensor_type;location;lat;lon;timestamp;P1;durP1;ratioP1;P2;durP2;ratioP2
32451;SDS011;45528;52.102;5.242;2023-03-22T00:01:21;13.4;;;1.8;;
32451;SDS011;45528;52.102;5.242;2023-03-22T00:02:58;13.1;;;1.9;;
32451;SDS011;45528;52.102;5.242;2023-03-22T00:06:11;9.21;;;1.5;;
32451;SDS011;45528;52.102;5.242;2023-03-22T00:07:48;12.0;;;1.9;;
32451;SDS011;45528;52.102;5.242;2023-03-22T00:09:24;9.31;;;1.9;;
32451;SDS011;45528;52.102;5.242;2023-03-22T00:12:37;10.6;;;2.1;;
32451;SDS011;45528;52.102;5.242;2023-03-22T00:14:13;8.71;;;1.9;;
32451;SDS011;45528;52.102;5.242;2023-03-22T00:15:50;13.4;;;2.1;;
32451;SDS011;45528;52.102;5.242;2023-03-22T00:17:26;11.9;;;2.21;;
32451;SDS011;45528;52.102;5.242;2023-03-22T00:20:39;12.1;;;2.0;;
32451;SDS011;45528;52.102;5.242;2023-03-22T00:22:22;10.4;;;2.21;;
32451;SDS011;45528;52.102;5.242;2023-03-22T00:23:59;8.4;;;2.0;;
32451;SDS011;45528;52.102;5.242;2023-03-22T00:27:12;10.4;;;2.0;;
32451;SDS011;45528;52.102;5.242;2023-03-22T00:28:48;11.2;;;2.21;;
32451;SDS011;45528;52.102;5.242;2023-03-22T00:30:24;13.2;;;2.31;;
32451;SDS011;45528;52.102;5.242;2023-03-22T00:33:37;11.9;;;2.5;;
32451;SDS011;45528;52.102;5.242;2023-03-22T00:35:13;10.21;;;2.31;;
32451;SDS011;45528;52.102;5.242;2023-03-22T00:36:49;8.81;;;2.1;;
32451;SDS011;45528;52.102;5.242;2023-03-22T00:38:26;9.1;;;2.21;;
32451;SDS011;45528;52.102;5.242;2023-03-22T00:41:41;9.6;;;2.31;;
32451;SDS011;45528;52.102;5.242;2023-03-22T00:43:17;13.5;;;2.8;;
32451;SDS011;45528;52.102;5.242;2023-03-22T00:44:53;11.5;;;2.4;;
32451;SDS011;45528;52.102;5.242;2023-03-22T00:48:06;10.6;;;2.21;;
32451;SDS011;45528;52.102;5.242;2023-03-22T00:49:42;12.9;;;2.6;;
32451;SDS011;45528;52.102;5.242;2023-03-22T00:51:19;10.3;;;2.5;;
32451;SDS011;45528;52.102;5.242;2023-03-22T00:54:31;11.5;;;3.5;;
32451;SDS011;45528;52.102;5.242;2023-03-22T00:56:07;15.0;;;4.3;;
32451;SDS011;45528;52.102;5.242;2023-03-22T00:57:44;15.5;;;3.9;;
32451;SDS011;45528;52.102;5.242;2023-03-22T00:59:20;9.5;;;3.7;;
32451;SDS011;45528;52.102;5.242;2023-03-22T01:02:33;10.21;;;2.9;;
32451;SDS011;45528;52.102;5.242;2023-03-22T01:04:09;12.0;;;3.5;;
32451;SDS011;45528;52.102;5.242;2023-03-22T01:05:46;13.9;;;3.5;;
32451;SDS011;45528;52.102;5.242;2023-03-22T01:08:59;13.9;;;3.0;;
32451;SDS011;45528;52.102;5.242;2023-03-22T01:10:37;8.6;;;2.6;;
32451;SDS011;45528;52.102;5.242;2023-03-22T01:12:15;14.6;;;2.9;;
32451;SDS011;45528;52.102;5.242;2023-03-22T01:13:54;11.0;;;2.8;;
32451;SDS011;45528;52.102;5.242;2023-03-22T01:17:08;9.5;;;2.4;;
32451;SDS011;45528;52.102;5.242;2023-03-22T01:18:45;11.5;;;2.8;;
32451;SDS011;45528;52.102;5.242;2023-03-22T01:20:21;12.7;;;2.4;;
32451;SDS011;45528;52.102;5.242;2023-03-22T01:23:35;16.7;;;3.1;;
32451;SDS011;45528;52.102;5.242;2023-03-22T01:25:12;10.21;;;2.5;;
32451;SDS011;45528;52.102;5.242;2023-03-22T01:26:49;15.2;;;3.0;;
32451;SDS011;45528;52.102;5.242;2023-03-22T01:30:02;12.2;;;2.5;;
32451;SDS011;45528;52.102;5.242;2023-03-22T01:31:39;10.21;;;2.6;;
32451;SDS011;45528;52.102;5.242;2023-03-22T01:33:15;12.8;;;2.7;;
32451;SDS011;45528;52.102;5.242;2023-03-22T01:34:52;7.4;;;2.5;;
32451;SDS011;45528;52.102;5.242;2023-03-22T01:38:05;8.0;;;2.31;;
32451;SDS011;45528;52.102;5.242;2023-03-22T01:39:41;11.5;;;2.5;;
32451;SDS011;45528;52.102;5.242;2023-03-22T01:41:17;10.3;;;2.5;;
32451;SDS011;45528;52.102;5.242;2023-03-22T01:44:31;9.5;;;2.5;;
32451;SDS011;45528;52.102;5.242;2023-03-22T01:46:07;11.5;;;2.4;;
32451;SDS011;45528;52.102;5.242;2023-03-22T01:47:44;9.0;;;2.31;;
32451;SDS011;45528;52.102;5.242;2023-03-22T01:51:07;11.0;;;2.31;;
32451;SDS011;45528;52.102;5.242;2023-03-22T01:52:46;9.9;;;2.31;;
32451;SDS011;45528;52.102;5.242;2023-03-22T01:54:26;7.3;;;2.0;;
32451;SDS011;45528;52.102;5.242;2023-03-22T01:56:09;14.2;;;2.4;;
32451;SDS011;45528;52.102;5.242;2023-03-22T01:59:25;11.6;;;2.31;;
32451;SDS011;45528;52.102;5.242;2023-03-22T02:01:03;7.5;;;2.1;;
32451;SDS011;45528;52.102;5.242;2023-03-22T02:02:41;13.0;;;2.31;;
32451;SDS011;45528;52.102;5.242;2023-03-22T02:04:19;10.4;;;2.21;;
32451;SDS011;45528;52.102;5.242;2023-03-22T02:07:34;11.2;;;2.6;;
32451;SDS011;45528;52.102;5.242;2023-03-22T02:09:13;10.1;;;2.21;;
32451;SDS011;45528;52.102;5.242;2023-03-22T02:10:50;9.5;;;2.31;;
32451;SDS011;45528;52.102;5.242;2023-03-22T02:12:29;10.8;;;2.21;;
32451;SDS011;45528;52.102;5.242;2023-03-22T02:16:23;11.1;;;2.21;;
32451;SDS011;45528;52.102;5.242;2023-03-22T02:18:17;9.6;;;2.1;;
32451;SDS011;45528;52.102;5.242;2023-03-22T02:22:02;12.6;;;2.5;;
32451;SDS011;45528;52.102;5.242;2023-03-22T02:24:05;7.5;;;2.31;;
32451;SDS011;45528;52.102;5.242;2023-03-22T02:27:41;12.2;;;3.0;;
32451;SDS011;45528;52.102;5.242;2023-03-22T02:31:52;10.7;;;2.7;;
32451;SDS011;45528;52.102;5.242;2023-03-22T02:33:49;9.71;;;3.1;;
32451;SDS011;45528;52.102;5.242;2023-03-22T02:40:55;8.31;;;3.7;;
32451;SDS011;45528;52.102;5.242;2023-03-22T02:42:47;13.6;;;4.5;;
32451;SDS011;45528;52.102;5.242;2023-03-22T02:44:34;10.9;;;4.1;;
32451;SDS011;45528;52.102;5.242;2023-03-22T02:46:18;12.0;;;4.8;;
32451;SDS011;45528;52.102;5.242;2023-03-22T02:49:45;13.1;;;5.0;;
32451;SDS011;45528;52.102;5.242;2023-03-22T02:51:30;12.4;;;4.8;;
32451;SDS011;45528;52.102;5.242;2023-03-22T02:53:12;15.7;;;5.6;;
32451;SDS011;45528;52.102;5.242;2023-03-22T02:54:53;15.5;;;5.8;;
32451;SDS011;45528;52.102;5.242;2023-03-22T02:56:37;17.2;;;6.6;;
32451;SDS011;45528;52.102;5.242;2023-03-22T03:00:00;13.9;;;6.9;;
32451;SDS011;45528;52.102;5.242;2023-03-22T03:01:41;18.8;;;7.3;;
32451;SDS011;45528;52.102;5.242;2023-03-22T03:03:22;18.2;;;7.7;;
32451;SDS011;45528;52.102;5.242;2023-03-22T03:05:02;18.61;;;8.2;;
32451;SDS011;45528;52.102;5.242;2023-03-22T03:08:19;17.7;;;8.6;;
32451;SDS011;45528;52.102;5.242;2023-03-22T03:09:58;15.9;;;8.4;;
32451;SDS011;45528;52.102;5.242;2023-03-22T03:11:34;18.11;;;9.1;;
32451;SDS011;45528;52.102;5.242;2023-03-22T03:13:10;16.11;;;9.9;;
32451;SDS011;45528;52.102;5.242;2023-03-22T03:16:26;20.0;;;9.6;;
32451;SDS011;45528;52.102;5.242;2023-03-22T03:18:09;20.7;;;9.5;;
32451;SDS011;45528;52.102;5.242;2023-03-22T03:19:57;20.2;;;10.1;;
32451;SDS011;45528;52.102;5.242;2023-03-22T03:21:53;20.7;;;10.8;;
32451;SDS011;45528;52.102;5.242;2023-03-22T03:23:38;19.91;;;10.9;;
32451;SDS011;45528;52.102;5.242;2023-03-22T03:27:09;19.61;;;10.21;;
32451;SDS011;45528;52.102;5.242;2023-03-22T03:28:51;20.7;;;10.5;;
32451;SDS011;45528;52.102;5.242;2023-03-22T03:30:36;18.2;;;10.5;;
32451;SDS011;45528;52.102;5.242;2023-03-22T03:32:20;23.3;;;11.8;;
32451;SDS011;45528;52.102;5.242;2023-03-22T03:35:49;22.6;;;11.7;;
32451;SDS011;45528;52.102;5.242;2023-03-22T03:37:30;21.5;;;11.7;;
32451;SDS011;45528;52.102;5.242;2023-03-22T03:39:11;23.9;;;12.2;;
32451;SDS011;45528;52.102;5.242;2023-03-22T03:40:50;21.5;;;12.2;;
32451;SDS011;45528;52.102;5.242;2023-03-22T03:42:32;24.7;;;12.1;;
32451;SDS011;45528;52.102;5.242;2023-03-22T03:45:49;19.3;;;11.7;;
32451;SDS011;45528;52.102;5.242;2023-03-22T03:47:27;24.0;;;12.2;;
32451;SDS011;45528;52.102;5.242;2023-03-22T03:49:04;20.9;;;12.2;;
32451;SDS011;45528;52.102;5.242;2023-03-22T03:52:20;24.0;;;11.7;;
32451;SDS011;45528;52.102;5.242;2023-03-22T03:53:56;22.9;;;11.9;;
32451;SDS011;45528;52.102;5.242;2023-03-22T03:55:32;17.8;;;11.5;;
32451;SDS011;45528;52.102;5.242;2023-03-22T03:57:08;21.7;;;11.1;;
32451;SDS011;45528;52.102;5.242;2023-03-22T04:00:20;21.4;;;12.0;;
32451;SDS011;45528;52.102;5.242;2023-03-22T04:01:57;20.7;;;10.5;;
32451;SDS011;45528;52.102;5.242;2023-03-22T04:03:33;22.8;;;12.7;;
32451;SDS011;45528;52.102;5.242;2023-03-22T04:06:48;22.1;;;11.7;;
32451;SDS011;45528;52.102;5.242;2023-03-22T04:08:24;21.2;;;11.9;;
32451;SDS011;45528;52.102;5.242;2023-03-22T04:10:00;20.11;;;11.5;;
32451;SDS011;45528;52.102;5.242;2023-03-22T04:13:12;19.8;;;11.0;;
32451;SDS011;45528;52.102;5.242;2023-03-22T04:14:48;20.41;;;12.2;;
32451;SDS011;45528;52.102;5.242;2023-03-22T04:16:24;19.0;;;11.3;;
32451;SDS011;45528;52.102;5.242;2023-03-22T04:18:00;21.2;;;12.0;;
32451;SDS011;45528;52.102;5.242;2023-03-22T04:21:13;21.9;;;11.3;;
32451;SDS011;45528;52.102;5.242;2023-03-22T04:22:49;21.7;;;12.0;;
32451;SDS011;45528;52.102;5.242;2023-03-22T04:24:25;22.9;;;12.3;;
32451;SDS011;45528;52.102;5.242;2023-03-22T04:27:39;23.2;;;12.1;;
32451;SDS011;45528;52.102;5.242;2023-03-22T04:29:17;23.2;;;11.1;;
32451;SDS011;45528;52.102;5.242;2023-03-22T04:30:53;21.5;;;11.5;;
32451;SDS011;45528;52.102;5.242;2023-03-22T04:34:07;20.0;;;11.6;;
32451;SDS011;45528;52.102;5.242;2023-03-22T04:35:43;19.5;;;11.6;;
32451;SDS011;45528;52.102;5.242;2023-03-22T04:37:19;20.41;;;11.5;;
32451;SDS011;45528;52.102;5.242;2023-03-22T04:38:56;19.0;;;11.7;;
32451;SDS011;45528;52.102;5.242;2023-03-22T04:42:09;21.2;;;10.7;;
32451;SDS011;45528;52.102;5.242;2023-03-22T04:43:45;20.8;;;11.3;;
32451;SDS011;45528;52.102;5.242;2023-03-22T04:45:22;21.7;;;11.2;;
32451;SDS011;45528;52.102;5.242;2023-03-22T04:48:35;21.6;;;11.0;;
32451;SDS011;45528;52.102;5.242;2023-03-22T04:50:12;21.1;;;10.5;;
32451;SDS011;45528;52.102;5.242;2023-03-22T04:51:48;17.61;;;10.5;;
32451;SDS011;45528;52.102;5.242;2023-03-22T04:55:00;19.91;;;10.4;;
32451;SDS011;45528;52.102;5.242;2023-03-22T04:56:37;20.0;;;10.8;;
32451;SDS011;45528;52.102;5.242;2023-03-22T04:58:13;19.91;;;10.4;;
32451;SDS011;45528;52.102;5.242;2023-03-22T05:01:25;23.4;;;10.8;;
32451;SDS011;45528;52.102;5.242;2023-03-22T05:03:01;21.1;;;10.21;;
32451;SDS011;45528;52.102;5.242;2023-03-22T05:04:38;19.11;;;10.8;;
32451;SDS011;45528;52.102;5.242;2023-03-22T05:06:14;19.91;;;10.21;;
32451;SDS011;45528;52.102;5.242;2023-03-22T05:09:26;16.9;;;9.71;;
32451;SDS011;45528;52.102;5.242;2023-03-22T05:11:04;15.9;;;9.4;;
32451;SDS011;45528;52.102;5.242;2023-03-22T05:12:42;17.8;;;9.4;;
32451;SDS011;45528;52.102;5.242;2023-03-22T05:15:54;18.5;;;9.4;;
32451;SDS011;45528;52.102;5.242;2023-03-22T05:17:30;20.41;;;9.21;;
32451;SDS011;45528;52.102;5.242;2023-03-22T05:19:06;18.7;;;9.6;;
32451;SDS011;45528;52.102;5.242;2023-03-22T05:22:19;17.7;;;9.31;;
32451;SDS011;45528;52.102;5.242;2023-03-22T05:23:55;16.4;;;9.0;;
32451;SDS011;45528;52.102;5.242;2023-03-22T05:25:32;19.2;;;9.1;;
32451;SDS011;45528;52.102;5.242;2023-03-22T05:27:08;19.2;;;9.0;;
32451;SDS011;45528;52.102;5.242;2023-03-22T05:30:20;18.2;;;8.9;;
32451;SDS011;45528;52.102;5.242;2023-03-22T05:31:57;18.91;;;8.81;;
32451;SDS011;45528;52.102;5.242;2023-03-22T05:33:33;16.2;;;8.71;;
32451;SDS011;45528;52.102;5.242;2023-03-22T05:36:46;18.91;;;8.4;;
32451;SDS011;45528;52.102;5.242;2023-03-22T05:38:22;18.91;;;8.4;;
32451;SDS011;45528;52.102;5.242;2023-03-22T05:39:58;17.2;;;8.6;;
32451;SDS011;45528;52.102;5.242;2023-03-22T05:43:11;19.41;;;9.0;;
32451;SDS011;45528;52.102;5.242;2023-03-22T05:44:47;17.61;;;8.31;;
32451;SDS011;45528;52.102;5.242;2023-03-22T05:46:22;15.2;;;8.31;;
32451;SDS011;45528;52.102;5.242;2023-03-22T05:47:58;14.2;;;7.4;;
32451;SDS011;45528;52.102;5.242;2023-03-22T05:51:11;17.5;;;8.4;;
32451;SDS011;45528;52.102;5.242;2023-03-22T05:52:49;15.7;;;8.1;;
32451;SDS011;45528;52.102;5.242;2023-03-22T05:54:25;17.0;;;8.2;;
32451;SDS011;45528;52.102;5.242;2023-03-22T05:57:38;17.7;;;8.1;;
32451;SDS011;45528;52.102;5.242;2023-03-22T05:59:15;20.0;;;8.4;;
32451;SDS011;45528;52.102;5.242;2023-03-22T06:00:51;15.4;;;7.5;;
32451;SDS011;45528;52.102;5.242;2023-03-22T06:04:03;15.7;;;7.5;;
32451;SDS011;45528;52.102;5.242;2023-03-22T06:05:39;18.5;;;8.0;;
32451;SDS011;45528;52.102;5.242;2023-03-22T06:07:16;16.9;;;7.7;;
32451;SDS011;45528;52.102;5.242;2023-03-22T06:10:28;15.4;;;7.8;;
32451;SDS011;45528;52.102;5.242;2023-03-22T06:12:04;14.0;;;6.9;;
32451;SDS011;45528;52.102;5.242;2023-03-22T06:13:41;16.7;;;6.9;;
32451;SDS011;45528;52.102;5.242;2023-03-22T06:15:17;17.8;;;7.1;;
32451;SDS011;45528;52.102;5.242;2023-03-22T06:18:30;16.7;;;7.1;;
32451;SDS011;45528;52.102;5.242;2023-03-22T06:20:07;18.11;;;7.0;;
32451;SDS011;45528;52.102;5.242;2023-03-22T06:21:46;19.11;;;7.2;;
32451;SDS011;45528;52.102;5.242;2023-03-22T06:24:59;13.3;;;6.6;;
32451;SDS011;45528;52.102;5.242;2023-03-22T06:26:35;14.9;;;6.3;;
32451;SDS011;45528;52.102;5.242;2023-03-22T06:28:12;12.7;;;6.3;;
32451;SDS011;45528;52.102;5.242;2023-03-22T06:31:23;14.7;;;6.6;;
32451;SDS011;45528;52.102;5.242;2023-03-22T06:33:00;13.9;;;5.9;;
32451;SDS011;45528;52.102;5.242;2023-03-22T06:34:36;14.4;;;6.1;;
32451;SDS011;45528;52.102;5.242;2023-03-22T06:36:12;17.41;;;6.0;;
32451;SDS011;45528;52.102;5.242;2023-03-22T06:39:25;15.1;;;5.6;;
32451;SDS011;45528;52.102;5.242;2023-03-22T06:41:01;10.9;;;5.4;;
32451;SDS011;45528;52.102;5.242;2023-03-22T06:42:37;17.2;;;5.6;;
32451;SDS011;45528;52.102;5.242;2023-03-22T06:45:50;12.3;;;5.8;;
32451;SDS011;45528;52.102;5.242;2023-03-22T06:47:26;14.0;;;5.7;;
32451;SDS011;45528;52.102;5.242;2023-03-22T06:49:03;16.2;;;5.11;;
32451;SDS011;45528;52.102;5.242;2023-03-22T06:52:16;15.9;;;5.7;;
32451;SDS011;45528;52.102;5.242;2023-03-22T06:53:52;15.8;;;5.2;;
32451;SDS011;45528;52.102;5.242;2023-03-22T06:55:28;13.4;;;5.11;;
32451;SDS011;45528;52.102;5.242;2023-03-22T06:57:04;13.4;;;5.4;;
32451;SDS011;45528;52.102;5.242;2023-03-22T07:00:17;14.9;;;4.91;;
32451;SDS011;45528;52.102;5.242;2023-03-22T07:01:53;13.5;;;4.61;;
32451;SDS011;45528;52.102;5.242;2023-03-22T07:03:30;9.5;;;4.2;;
32451;SDS011;45528;52.102;5.242;2023-03-22T07:06:43;14.2;;;4.61;;
32451;SDS011;45528;52.102;5.242;2023-03-22T07:08:19;11.2;;;4.1;;
32451;SDS011;45528;52.102;5.242;2023-03-22T07:09:55;7.8;;;3.9;;
32451;SDS011;45528;52.102;5.242;2023-03-22T07:13:07;13.0;;;4.41;;
32451;SDS011;45528;52.102;5.242;2023-03-22T07:14:44;10.5;;;4.1;;
32451;SDS011;45528;52.102;5.242;2023-03-22T07:16:19;9.6;;;4.41;;
32451;SDS011;45528;52.102;5.242;2023-03-22T07:17:56;12.8;;;4.1;;
32451;SDS011;45528;52.102;5.242;2023-03-22T07:21:09;14.6;;;4.61;;
32451;SDS011;45528;52.102;5.242;2023-03-22T07:22:44;14.2;;;4.1;;
32451;SDS011;45528;52.102;5.242;2023-03-22T07:24:20;17.0;;;4.2;;
32451;SDS011;45528;52.102;5.242;2023-03-22T07:27:32;15.2;;;4.1;;
32451;SDS011;45528;52.102;5.242;2023-03-22T07:29:08;14.4;;;3.9;;
32451;SDS011;45528;52.102;5.242;2023-03-22T07:30:44;13.4;;;4.0;;
32451;SDS011;45528;52.102;5.242;2023-03-22T07:33:57;12.3;;;3.7;;
32451;SDS011;45528;52.102;5.242;2023-03-22T07:35:33;12.8;;;3.6;;
32451;SDS011;45528;52.102;5.242;2023-03-22T07:37:10;10.5;;;3.6;;
32451;SDS011;45528;52.102;5.242;2023-03-22T07:40:22;10.5;;;3.6;;
32451;SDS011;45528;52.102;5.242;2023-03-22T07:41:59;12.5;;;3.8;;
32451;SDS011;45528;52.102;5.242;2023-03-22T07:43:35;12.4;;;4.1;;
32451;SDS011;45528;52.102;5.242;2023-03-22T07:45:12;11.2;;;3.8;;
32451;SDS011;45528;52.102;5.242;2023-03-22T07:48:24;15.2;;;3.5;;
32451;SDS011;45528;52.102;5.242;2023-03-22T07:50:00;12.1;;;3.5;;
32451;SDS011;45528;52.102;5.242;2023-03-22T07:51:36;11.6;;;3.6;;
32451;SDS011;45528;52.102;5.242;2023-03-22T07:54:49;11.7;;;3.0;;
32451;SDS011;45528;52.102;5.242;2023-03-22T07:56:26;11.5;;;3.3;;
32451;SDS011;45528;52.102;5.242;2023-03-22T07:58:02;12.6;;;3.6;;
32451;SDS011;45528;52.102;5.242;2023-03-22T08:01:15;12.6;;;3.3;;
32451;SDS011;45528;52.102;5.242;2023-03-22T08:02:51;11.1;;;3.0;;
32451;SDS011;45528;52.102;5.242;2023-03-22T08:04:27;10.0;;;2.9;;
32451;SDS011;45528;52.102;5.242;2023-03-22T08:07:42;16.0;;;3.0;;
32451;SDS011;45528;52.102;5.242;2023-03-22T08:09:19;16.0;;;3.0;;
32451;SDS011;45528;52.102;5.242;2023-03-22T08:10:55;15.5;;;3.0;;
32451;SDS011;45528;52.102;5.242;2023-03-22T08:12:31;11.0;;;2.7;;
32451;SDS011;45528;52.102;5.242;2023-03-22T08:15:44;9.31;;;2.7;;
32451;SDS011;45528;52.102;5.242;2023-03-22T08:17:20;12.3;;;2.6;;
32451;SDS011;45528;52.102;5.242;2023-03-22T08:18:56;14.6;;;2.8;;
32451;SDS011;45528;52.102;5.242;2023-03-22T08:22:09;11.1;;;2.6;;
32451;SDS011;45528;52.102;5.242;2023-03-22T08:23:45;14.2;;;2.9;;
32451;SDS011;45528;52.102;5.242;2023-03-22T08:25:21;10.7;;;2.6;;
32451;SDS011;45528;52.102;5.242;2023-03-22T08:28:33;10.0;;;2.7;;
32451;SDS011;45528;52.102;5.242;2023-03-22T08:30:10;12.7;;;2.6;;
32451;SDS011;45528;52.102;5.242;2023-03-22T08:31:46;12.9;;;2.7;;
32451;SDS011;45528;52.102;5.242;2023-03-22T08:33:23;14.1;;;2.7;;
32451;SDS011;45528;52.102;5.242;2023-03-22T08:36:35;10.21;;;2.9;;
32451;SDS011;45528;52.102;5.242;2023-03-22T08:38:12;11.6;;;2.8;;
32451;SDS011;45528;52.102;5.242;2023-03-22T08:39:48;10.3;;;3.2;;
32451;SDS011;45528;52.102;5.242;2023-03-22T08:43:02;15.2;;;3.3;;
32451;SDS011;45528;52.102;5.242;2023-03-22T08:44:39;14.6;;;3.1;;
32451;SDS011;45528;52.102;5.242;2023-03-22T08:46:15;12.2;;;3.5;;
32451;SDS011;45528;52.102;5.242;2023-03-22T08:49:27;10.21;;;3.0;;
32451;SDS011;45528;52.102;5.242;2023-03-22T08:51:03;13.4;;;3.6;;
32451;SDS011;45528;52.102;5.242;2023-03-22T08:52:40;11.5;;;3.4;;
32451;SDS011;45528;52.102;5.242;2023-03-22T08:54:16;10.9;;;3.4;;
32451;SDS011;45528;52.102;5.242;2023-03-22T08:57:29;10.7;;;3.4;;
32451;SDS011;45528;52.102;5.242;2023-03-22T08:59:05;10.7;;;3.4;;
32451;SDS011;45528;52.102;5.242;2023-03-22T09:00:43;13.3;;;3.3;;
32451;SDS011;45528;52.102;5.242;2023-03-22T09:03:55;12.3;;;2.8;;
32451;SDS011;45528;52.102;5.242;2023-03-22T09:05:31;15.7;;;3.6;;
32451;SDS011;45528;52.102;5.242;2023-03-22T09:07:07;13.1;;;3.5;;
32451;SDS011;45528;52.102;5.242;2023-03-22T09:10:20;17.11;;;3.4;;
32451;SDS011;45528;52.102;5.242;2023-03-22T09:11:56;10.6;;;3.1;;
32451;SDS011;45528;52.102;5.242;2023-03-22T09:13:32;14.4;;;3.5;;
32451;SDS011;45528;52.102;5.242;2023-03-22T09:15:08;13.9;;;3.2;;
32451;SDS011;45528;52.102;5.242;2023-03-22T09:18:22;14.6;;;3.7;;
32451;SDS011;45528;52.102;5.242;2023-03-22T09:19:59;14.2;;;3.3;;
32451;SDS011;45528;52.102;5.242;2023-03-22T09:21:36;12.6;;;3.4;;
32451;SDS011;45528;52.102;5.242;2023-03-22T09:24:49;10.5;;;2.9;;
32451;SDS011;45528;52.102;5.242;2023-03-22T09:26:25;11.9;;;2.9;;
32451;SDS011;45528;52.102;5.242;2023-03-22T09:28:01;15.9;;;2.9;;
32451;SDS011;45528;52.102;5.242;2023-03-22T09:31:15;12.2;;;2.6;;
32451;SDS011;45528;52.102;5.242;2023-03-22T09:32:52;12.4;;;3.2;;
32451;SDS011;45528;52.102;5.242;2023-03-22T09:34:29;9.9;;;2.7;;
32451;SDS011;45528;52.102;5.242;2023-03-22T09:36:05;9.1;;;3.0;;
32451;SDS011;45528;52.102;5.242;2023-03-22T09:39:18;12.0;;;3.1;;
32451;SDS011;45528;52.102;5.242;2023-03-22T09:40:55;11.9;;;3.0;;
32451;SDS011;45528;52.102;5.242;2023-03-22T09:42:36;12.3;;;3.4;;
32451;SDS011;45528;52.102;5.242;2023-03-22T09:46:01;12.7;;;3.6;;
32451;SDS011;45528;52.102;5.242;2023-03-22T09:47:44;9.9;;;3.1;;
32451;SDS011;45528;52.102;5.242;2023-03-22T09:49:26;9.1;;;3.2;;
32451;SDS011;45528;52.102;5.242;2023-03-22T09:51:12;11.1;;;3.4;;
32451;SDS011;45528;52.102;5.242;2023-03-22T09:52:57;13.5;;;3.1;;
32451;SDS011;45528;52.102;5.242;2023-03-22T09:56:16;12.0;;;3.3;;
32451;SDS011;45528;52.102;5.242;2023-03-22T09:57:58;9.21;;;3.2;;
32451;SDS011;45528;52.102;5.242;2023-03-22T09:59:43;10.1;;;3.2;;
32451;SDS011;45528;52.102;5.242;2023-03-22T10:01:28;10.7;;;3.2;;
32451;SDS011;45528;52.102;5.242;2023-03-22T10:05:01;12.9;;;3.5;;
32451;SDS011;45528;52.102;5.242;2023-03-22T10:06:47;13.4;;;3.7;;
32451;SDS011;45528;52.102;5.242;2023-03-22T10:08:32;13.3;;;3.6;;
32451;SDS011;45528;52.102;5.242;2023-03-22T10:10:19;15.4;;;3.4;;
32451;SDS011;45528;52.102;5.242;2023-03-22T10:11:59;10.3;;;3.2;;
32451;SDS011;45528;52.102;5.242;2023-03-22T10:13:45;9.21;;;3.5;;
32451;SDS011;45528;52.102;5.242;2023-03-22T10:17:13;14.8;;;4.41;;
32451;SDS011;45528;52.102;5.242;2023-03-22T10:18:54;11.8;;;3.4;;
32451;SDS011;45528;52.102;5.242;2023-03-22T10:20:39;13.6;;;4.1;;
32451;SDS011;45528;52.102;5.242;2023-03-22T10:22:22;13.6;;;3.3;;
32451;SDS011;45528;52.102;5.242;2023-03-22T10:25:50;12.3;;;3.5;;
32451;SDS011;45528;52.102;5.242;2023-03-22T10:27:29;11.3;;;3.4;;
32451;SDS011;45528;52.102;5.242;2023-03-22T10:29:09;16.3;;;3.7;;
32451;SDS011;45528;52.102;5.242;2023-03-22T10:30:51;11.8;;;3.4;;
32451;SDS011;45528;52.102;5.242;2023-03-22T10:34:18;11.7;;;3.8;;
32451;SDS011;45528;52.102;5.242;2023-03-22T10:35:57;12.2;;;3.6;;
32451;SDS011;45528;52.102;5.242;2023-03-22T10:37:35;12.4;;;3.6;;
32451;SDS011;45528;52.102;5.242;2023-03-22T10:39:17;13.6;;;3.6;;
32451;SDS011;45528;52.102;5.242;2023-03-22T10:41:07;13.0;;;3.7;;
32451;SDS011;45528;52.102;5.242;2023-03-22T10:44:29;10.8;;;3.6;;
32451;SDS011;45528;52.102;5.242;2023-03-22T10:46:11;12.4;;;3.2;;
32451;SDS011;45528;52.102;5.242;2023-03-22T10:47:54;14.1;;;3.4;;
32451;SDS011;45528;52.102;5.242;2023-03-22T10:49:34;10.21;;;3.5;;
32451;SDS011;45528;52.102;5.242;2023-03-22T10:53:02;13.4;;;3.5;;
32451;SDS011;45528;52.102;5.242;2023-03-22T10:54:41;10.0;;;3.1;;
32451;SDS011;45528;52.102;5.242;2023-03-22T10:56:18;10.8;;;3.1;;
32451;SDS011;45528;52.102;5.242;2023-03-22T10:57:56;11.3;;;3.2;;
32451;SDS011;45528;52.102;5.242;2023-03-22T10:59:45;10.8;;;3.1;;
32451;SDS011;45528;52.102;5.242;2023-03-22T11:03:04;8.71;;;3.4;;
32451;SDS011;45528;52.102;5.242;2023-03-22T11:04:45;11.9;;;3.6;;
32451;SDS011;45528;52.102;5.242;2023-03-22T11:06:23;11.3;;;3.5;;
32451;SDS011;45528;52.102;5.242;2023-03-22T11:09:37;9.71;;;3.4;;
32451;SDS011;45528;52.102;5.242;2023-03-22T11:11:16;13.2;;;3.9;;
32451;SDS011;45528;52.102;5.242;2023-03-22T11:12:58;10.5;;;3.3;;
32451;SDS011;45528;52.102;5.242;2023-03-22T11:14:47;8.9;;;3.6;;
32451;SDS011;45528;52.102;5.242;2023-03-22T11:18:05;9.9;;;3.5;;
32451;SDS011;45528;52.102;5.242;2023-03-22T11:19:49;8.9;;;3.4;;
32451;SDS011;45528;52.102;5.242;2023-03-22T11:21:29;11.0;;;3.7;;
32451;SDS011;45528;52.102;5.242;2023-03-22T11:23:10;9.21;;;3.7;;
32451;SDS011;45528;52.102;5.242;2023-03-22T11:26:28;12.3;;;3.6;;
32451;SDS011;45528;52.102;5.242;2023-03-22T11:28:08;12.4;;;4.0;;
32451;SDS011;45528;52.102;5.242;2023-03-22T11:29:53;9.71;;;3.4;;
32451;SDS011;45528;52.102;5.242;2023-03-22T11:31:50;14.1;;;3.6;;
32451;SDS011;45528;52.102;5.242;2023-03-22T11:33:30;11.9;;;3.7;;
32451;SDS011;45528;52.102;5.242;2023-03-22T11:36:49;14.3;;;3.7;;
32451;SDS011;45528;52.102;5.242;2023-03-22T11:38:27;12.0;;;3.5;;
32451;SDS011;45528;52.102;5.242;2023-03-22T11:40:12;10.21;;;3.0;;
32451;SDS011;45528;52.102;5.242;2023-03-22T11:41:53;9.31;;;3.3;;
32451;SDS011;45528;52.102;5.242;2023-03-22T11:45:13;11.5;;;3.3;;
32451;SDS011;45528;52.102;5.242;2023-03-22T11:46:52;8.1;;;2.7;;
32451;SDS011;45528;52.102;5.242;2023-03-22T11:48:31;11.0;;;2.6;;
32451;SDS011;45528;52.102;5.242;2023-03-22T11:50:21;9.31;;;2.5;;
32451;SDS011;45528;52.102;5.242;2023-03-22T11:52:06;10.3;;;2.8;;
32451;SDS011;45528;52.102;5.242;2023-03-22T11:55:23;11.4;;;2.9;;
32451;SDS011;45528;52.102;5.242;2023-03-22T11:57:01;12.2;;;3.0;;
32451;SDS011;45528;52.102;5.242;2023-03-22T11:58:42;10.21;;;2.7;;
32451;SDS011;45528;52.102;5.242;2023-03-22T12:00:39;7.7;;;2.7;;
32451;SDS011;45528;52.102;5.242;2023-03-22T12:04:02;10.21;;;2.8;;
32451;SDS011;45528;52.102;5.242;2023-03-22T12:05:43;9.81;;;3.1;;
32451;SDS011;45528;52.102;5.242;2023-03-22T12:07:24;10.9;;;2.8;;
32451;SDS011;45528;52.102;5.242;2023-03-22T12:09:05;12.2;;;3.2;;
32451;SDS011;45528;52.102;5.242;2023-03-22T12:12:28;9.6;;;3.6;;
32451;SDS011;45528;52.102;5.242;2023-03-22T12:14:12;8.31;;;2.9;;
32451;SDS011;45528;52.102;5.242;2023-03-22T12:15:54;10.0;;;3.2;;
32451;SDS011;45528;52.102;5.242;2023-03-22T12:17:34;14.2;;;3.4;;
32451;SDS011;45528;52.102;5.242;2023-03-22T12:19:19;7.9;;;3.0;;
32451;SDS011;45528;52.102;5.242;2023-03-22T12:22:47;6.3;;;2.8;;
32451;SDS011;45528;52.102;5.242;2023-03-22T12:24:28;9.0;;;3.1;;
32451;SDS011;45528;52.102;5.242;2023-03-22T12:26:10;10.7;;;2.9;;
32451;SDS011;45528;52.102;5.242;2023-03-22T12:27:52;9.31;;;2.9;;
32451;SDS011;45528;52.102;5.242;2023-03-22T12:31:12;10.6;;;2.8;;
32451;SDS011;45528;52.102;5.242;2023-03-22T12:32:55;8.4;;;3.2;;
32451;SDS011;45528;52.102;5.242;2023-03-22T12:34:37;8.71;;;2.9;;
32451;SDS011;45528;52.102;5.242;2023-03-22T12:36:19;10.21;;;2.9;;
32451;SDS011;45528;52.102;5.242;2023-03-22T12:40:00;9.4;;;3.2;;
32451;SDS011;45528;52.102;5.242;2023-03-22T12:41:43;7.4;;;2.7;;
32451;SDS011;45528;52.102;5.242;2023-03-22T12:43:29;7.2;;;3.1;;
32451;SDS011;45528;52.102;5.242;2023-03-22T12:45:16;11.0;;;3.5;;
32451;SDS011;45528;52.102;5.242;2023-03-22T12:46:56;9.81;;;3.3;;
32451;SDS011;45528;52.102;5.242;2023-03-22T12:48:38;11.2;;;3.4;;
32451;SDS011;45528;52.102;5.242;2023-03-22T12:52:03;10.6;;;3.6;;
32451;SDS011;45528;52.102;5.242;2023-03-22T12:53:53;10.9;;;3.5;;
32451;SDS011;45528;52.102;5.242;2023-03-22T12:55:32;10.9;;;3.5;;